Masonic Home, Kentucky
Current Conditions -  °F | °C
As of 5:56 AM on Thursday 23 Oct 2014 (Local Time) from KSDF Reporting Station
Clear Clear  
Wind Chill: 38°   Ceiling: Unl
Heat Index: 42°   Visibility: 9mi
Dew Point: 40°   Wind: 6mph
Humidity: 92%   Direction: 240°WSW
Pressure: 30.26"   Gusts: NA
Location:  38.25°N, 85.76°W
Report Text: KSDF 230956Z 24005KT 9SM CLR 06/04 A3026 RMK AO2 SLP247 T00560044
Loading
Personal Weather Stations






























Interactive Weather Map
Tropical Storm Tracking
New forecast layout! Learn more

10-Day Weather Forecast

Advertisements
Track Severe Weather on mobile